Time;durP1;ratioP1;P1;durP2;ratioP2;P2;SDS_P1;SDS_P2;PMS_P1;PMS_P2;Temp;Humidity;BMP_temperature;BMP_pressure;BME280_temperature;BME280_humidity;BME280_pressure;Samples;Min_cycle;Max_cycle;Signal;HPM_P1;HPM_P2
2022/07/01 00:01:27;;;;;;;1.95;1.42;;;;;;;;;;5013303;28;20030;-75
2022/07/01 00:03:53;;;;;;;0.95;0.65;;;;;;;;;;5013954;28;20045;-75
2022/07/01 00:06:18;;;;;;;0.85;0.82;;;;;;;;;;5014139;28;20359;-75
2022/07/01 00:08:43;;;;;;;1.80;0.73;;;;;;;;;;5014862;28;20053;-75
2022/07/01 00:11:09;;;;;;;0.40;0.40;;;;;;;;;;5014455;28;20029;-76
2022/07/01 00:13:35;;;;;;;1.65;1.40;;;;;;;;;;5014555;28;20429;-75
2022/07/01 00:16:00;;;;;;;0.45;0.40;;;;;;;;;;5025451;28;20405;-75
2022/07/01 00:18:25;;;;;;;0.50;0.50;;;;;;;;;;5012599;28;20030;-75
2022/07/01 00:20:53;;;;;;;0.50;0.50;;;;;;;;;;5033197;28;20079;-75
2022/07/01 00:23:19;;;;;;;2.75;0.73;;;;;;;;;;5037978;28;20025;-76
2022/07/01 00:25:47;;;;;;;0.55;0.55;;;;;;;;;;5019868;28;20033;-76
2022/07/01 00:28:12;;;;;;;1.50;1.27;;;;;;;;;;5018170;28;20017;-76
2022/07/01 00:30:40;;;;;;;0.77;0.60;;;;;;;;;;5018054;28;20589;-75
2022/07/01 00:33:05;;;;;;;0.63;0.63;;;;;;;;;;5017084;28;20025;-75
2022/07/01 00:35:31;;;;;;;0.77;0.75;;;;;;;;;;5031762;28;20036;-76
2022/07/01 00:37:58;;;;;;;3.83;0.95;;;;;;;;;;5037970;28;20028;-75
2022/07/01 00:40:24;;;;;;;1.65;0.98;;;;;;;;;;5024935;28;20104;-75
2022/07/01 00:42:50;;;;;;;1.75;1.63;;;;;;;;;;5000105;28;20118;-75
2022/07/01 00:45:16;;;;;;;1.95;1.15;;;;;;;;;;5019363;28;20481;-75
2022/07/01 00:47:42;;;;;;;1.65;1.30;;;;;;;;;;5017860;28;20044;-76
2022/07/01 00:50:10;;;;;;;1.10;0.75;;;;;;;;;;5017899;28;20502;-76
2022/07/01 00:52:38;;;;;;;1.27;1.00;;;;;;;;;;5016922;28;20088;-75
2022/07/01 00:55:06;;;;;;;1.48;1.27;;;;;;;;;;5025055;28;20535;-75
2022/07/01 00:57:35;;;;;;;2.08;1.35;;;;;;;;;;5017969;28;20033;-76
2022/07/01 01:00:03;;;;;;;5.00;1.95;;;;;;;;;;5017026;28;20039;-76
2022/07/01 01:02:29;;;;;;;2.10;1.23;;;;;;;;;;4997112;28;20027;-76
2022/07/01 01:04:57;;;;;;;3.08;2.42;;;;;;;;;;5023006;28;20731;-75
2022/07/01 01:07:22;;;;;;;1.80;1.52;;;;;;;;;;5017007;28;20375;-75
2022/07/01 01:09:48;;;;;;;1.55;1.40;;;;;;;;;;5028939;28;20033;-75
2022/07/01 01:12:14;;;;;;;2.55;1.55;;;;;;;;;;5037169;28;20168;-75
2022/07/01 01:14:49;;;;;;;3.30;1.90;;;;;;;;;;5020448;28;20485;-75
2022/07/01 01:17:16;;;;;;;1.40;1.30;;;;;;;;;;5013531;28;20663;-76
2022/07/01 01:19:42;;;;;;;3.00;1.85;;;;;;;;;;5011701;28;20029;-75
2022/07/01 01:22:08;;;;;;;3.40;1.85;;;;;;;;;;5015199;28;20457;-75
2022/07/01 01:24:36;;;;;;;2.13;1.95;;;;;;;;;;5017637;28;20479;-76
2022/07/01 01:27:02;;;;;;;4.28;2.03;;;;;;;;;;5016967;28;20410;-76
2022/07/01 01:29:30;;;;;;;2.80;1.60;;;;;;;;;;5019657;28;20026;-75
2022/07/01 01:31:58;;;;;;;2.40;2.20;;;;;;;;;;5029712;28;20026;-75
2022/07/01 01:34:24;;;;;;;2.15;1.67;;;;;;;;;;5023905;28;20025;-76
2022/07/01 01:36:49;;;;;;;1.98;1.50;;;;;;;;;;5036033;28;20022;-75
2022/07/01 01:39:16;;;;;;;1.90;1.33;;;;;;;;;;5028711;28;20030;-76
2022/07/01 01:41:43;;;;;;;4.20;2.17;;;;;;;;;;5018511;28;20033;-75
2022/07/01 01:44:08;;;;;;;5.05;2.65;;;;;;;;;;5036654;28;20025;-76
2022/07/01 01:46:34;;;;;;;2.90;1.50;;;;;;;;;;5029724;28;20037;-76
2022/07/01 01:49:02;;;;;;;1.90;1.77;;;;;;;;;;5027810;28;20096;-75
2022/07/01 01:51:28;;;;;;;3.53;3.10;;;;;;;;;;5016639;28;20455;-75
2022/07/01 01:53:56;;;;;;;2.28;1.95;;;;;;;;;;5016863;28;20053;-75
2022/07/01 01:56:25;;;;;;;3.22;2.42;;;;;;;;;;5016416;28;20044;-75
2022/07/01 01:58:51;;;;;;;2.78;2.03;;;;;;;;;;5021117;28;20029;-75
2022/07/01 02:01:17;;;;;;;3.03;2.47;;;;;;;;;;5017304;28;20076;-75
2022/07/01 02:03:46;;;;;;;1.33;1.08;;;;;;;;;;5013065;28;20113;-75
2022/07/01 02:06:13;;;;;;;2.35;1.90;;;;;;;;;;5012018;28;20025;-76
2022/07/01 02:08:38;;;;;;;6.18;3.17;;;;;;;;;;5021396;28;20520;-75
2022/07/01 02:11:04;;;;;;;1.35;1.27;;;;;;;;;;5016064;28;20022;-75
2022/07/01 02:13:30;;;;;;;2.88;2.10;;;;;;;;;;5014352;28;20029;-75
2022/07/01 02:15:57;;;;;;;3.55;2.38;;;;;;;;;;5012351;28;20168;-75
2022/07/01 02:18:23;;;;;;;3.30;2.17;;;;;;;;;;5015299;28;20540;-75
2022/07/01 02:20:49;;;;;;;3.72;2.15;;;;;;;;;;5016465;28;20037;-74
2022/07/01 02:23:16;;;;;;;3.55;2.55;;;;;;;;;;5016459;28;20104;-76
2022/07/01 02:25:44;;;;;;;2.50;1.98;;;;;;;;;;5013611;28;20351;-75
2022/07/01 02:28:12;;;;;;;1.70;1.55;;;;;;;;;;5016261;28;20045;-75
2022/07/01 02:30:37;;;;;;;0.52;0.52;;;;;;;;;;5015658;28;20030;-75
2022/07/01 02:33:08;;;;;;;2.85;2.20;;;;;;;;;;5014525;28;20351;-75
2022/07/01 02:35:36;;;;;;;2.50;1.20;;;;;;;;;;5014603;28;20026;-75
2022/07/01 02:38:02;;;;;;;2.20;2.08;;;;;;;;;;5001551;28;20085;-76
2022/07/01 02:40:27;;;;;;;2.78;1.90;;;;;;;;;;5015784;28;20029;-75
2022/07/01 02:42:52;;;;;;;2.00;1.80;;;;;;;;;;5014915;28;20034;-76
2022/07/01 02:45:18;;;;;;;6.85;2.05;;;;;;;;;;5015376;28;20049;-75
2022/07/01 02:47:44;;;;;;;4.40;1.17;;;;;;;;;;5015535;28;20021;-75
2022/07/01 02:50:11;;;;;;;1.08;0.75;;;;;;;;;;5031472;28;20084;-75
2022/07/01 02:52:38;;;;;;;1.30;1.23;;;;;;;;;;5019142;28;20025;-75
2022/07/01 02:55:06;;;;;;;2.05;1.17;;;;;;;;;;5015768;28;20451;-76
2022/07/01 02:57:32;;;;;;;2.35;1.88;;;;;;;;;;5014894;28;20041;-75
2022/07/01 02:59:57;;;;;;;3.20;1.80;;;;;;;;;;5015781;28;20352;-75
2022/07/01 03:02:23;;;;;;;2.35;1.67;;;;;;;;;;5015760;28;20044;-75
2022/07/01 03:04:50;;;;;;;0.85;0.50;;;;;;;;;;5012752;28;20409;-76
2022/07/01 03:07:18;;;;;;;1.33;1.23;;;;;;;;;;5005554;28;20030;-76
2022/07/01 03:09:44;;;;;;;1.67;1.25;;;;;;;;;;5015837;28;20328;-76
2022/07/01 03:12:27;;;;;;;5.30;1.70;;;;;;;;;;5014207;28;20018;-75
2022/07/01 03:14:56;;;;;;;0.63;0.63;;;;;;;;;;5012669;28;20036;-76
2022/07/01 03:17:25;;;;;;;2.90;2.50;;;;;;;;;;5012858;28;20025;-76
2022/07/01 03:19:54;;;;;;;1.40;0.95;;;;;;;;;;5016920;28;20440;-76
2022/07/01 03:22:23;;;;;;;3.50;0.70;;;;;;;;;;5004452;28;20447;-77
2022/07/01 03:24:49;;;;;;;1.25;1.15;;;;;;;;;;5013180;28;20038;-76
2022/07/01 03:27:17;;;;;;;3.35;0.50;;;;;;;;;;5012968;28;20026;-76
2022/07/01 03:29:43;;;;;;;1.48;1.38;;;;;;;;;;5012891;28;20053;-75
2022/07/01 03:32:11;;;;;;;2.40;1.58;;;;;;;;;;5018948;28;20124;-75
2022/07/01 03:34:43;;;;;;;1.25;1.15;;;;;;;;;;5013613;28;20022;-76
2022/07/01 03:37:12;;;;;;;2.85;1.90;;;;;;;;;;5012488;28;20036;-74
2022/07/01 03:39:39;;;;;;;1.77;1.27;;;;;;;;;;5012383;28;20037;-75
2022/07/01 03:42:05;;;;;;;1.25;0.90;;;;;;;;;;5014822;28;20092;-76
2022/07/01 03:44:31;;;;;;;2.60;2.05;;;;;;;;;;5012502;28;20029;-76
2022/07/01 03:46:57;;;;;;;2.95;1.17;;;;;;;;;;5012530;28;20032;-76
2022/07/01 03:49:22;;;;;;;1.83;1.60;;;;;;;;;;5014625;28;20033;-75
2022/07/01 03:51:48;;;;;;;1.25;1.05;;;;;;;;;;4997376;28;20026;-76
2022/07/01 03:57:02;;;;;;;1.70;0.88;;;;;;;;;;5010375;28;20092;-76
2022/07/01 03:59:31;;;;;;;1.33;1.23;;;;;;;;;;5014326;28;20026;-76
2022/07/01 04:01:57;;;;;;;1.60;1.50;;;;;;;;;;5019752;28;20041;-76
2022/07/01 04:04:26;;;;;;;1.48;0.57;;;;;;;;;;5017280;28;20033;-76
2022/07/01 04:06:52;;;;;;;1.70;1.23;;;;;;;;;;5009492;28;20034;-75
2022/07/01 04:09:20;;;;;;;1.60;1.50;;;;;;;;;;5016372;28;20072;-75
2022/07/01 04:11:47;;;;;;;2.95;1.13;;;;;;;;;;5025904;28;20022;-76
2022/07/01 04:14:15;;;;;;;1.80;1.55;;;;;;;;;;5000240;28;20034;-75
2022/07/01 04:16:41;;;;;;;1.15;1.05;;;;;;;;;;5026269;28;20164;-76
2022/07/01 04:19:07;;;;;;;2.65;1.60;;;;;;;;;;4991798;28;20026;-76
2022/07/01 04:24:16;;;;;;;1.90;1.63;;;;;;;;;;5020262;28;20036;-76
2022/07/01 04:26:43;;;;;;;1.42;0.88;;;;;;;;;;5011864;28;20026;-76
2022/07/01 04:29:08;;;;;;;6.03;0.98;;;;;;;;;;5007760;28;20057;-75
2022/07/01 04:31:35;;;;;;;2.05;1.85;;;;;;;;;;4997409;28;20060;-76
2022/07/01 04:34:00;;;;;;;0.93;0.90;;;;;;;;;;5013363;28;20046;-76
2022/07/01 04:36:26;;;;;;;2.95;1.15;;;;;;;;;;5013017;28;20064;-76
2022/07/01 04:38:54;;;;;;;2.17;1.58;;;;;;;;;;5012827;28;20026;-76
2022/07/01 04:44:03;;;;;;;1.70;1.52;;;;;;;;;;5016609;28;20080;-76
2022/07/01 04:46:28;;;;;;;1.67;0.93;;;;;;;;;;5012536;28;20065;-75
2022/07/01 04:48:55;;;;;;;2.85;1.13;;;;;;;;;;5014759;28;20518;-75
2022/07/01 04:51:20;;;;;;;1.60;1.13;;;;;;;;;;5010995;28;20030;-75
2022/07/01 04:53:46;;;;;;;1.70;1.05;;;;;;;;;;5018885;28;20031;-76
2022/07/01 04:56:12;;;;;;;2.17;1.83;;;;;;;;;;5014063;28;20443;-75
2022/07/01 04:58:37;;;;;;;2.22;1.88;;;;;;;;;;5012275;28;20097;-76
2022/07/01 05:01:04;;;;;;;2.05;1.27;;;;;;;;;;5021282;28;20033;-76
2022/07/01 05:03:32;;;;;;;5.85;1.85;;;;;;;;;;5013303;28;20364;-76
2022/07/01 05:05:58;;;;;;;0.98;0.95;;;;;;;;;;5012611;28;20038;-75
2022/07/01 05:08:26;;;;;;;1.67;1.25;;;;;;;;;;5014646;28;20427;-76
2022/07/01 05:10:53;;;;;;;2.65;1.77;;;;;;;;;;5014789;28;20037;-75
2022/07/01 05:13:19;;;;;;;1.05;0.82;;;;;;;;;;5018232;28;20506;-76
2022/07/01 05:15:46;;;;;;;1.98;1.30;;;;;;;;;;5025761;28;20105;-76
2022/07/01 05:23:45;;;;;;;0.85;0.63;;;;;;;;;;5007085;28;20084;-76
2022/07/01 05:26:15;;;;;;;1.83;1.48;;;;;;;;;;5008564;28;20033;-76
2022/07/01 05:28:43;;;;;;;1.73;1.33;;;;;;;;;;5013839;28;20022;-75
2022/07/01 05:31:08;;;;;;;2.28;1.15;;;;;;;;;;5014423;28;20447;-76
2022/07/01 05:33:34;;;;;;;1.90;1.70;;;;;;;;;;5017366;28;20049;-76
2022/07/01 05:36:01;;;;;;;1.25;1.15;;;;;;;;;;5015728;28;20030;-76
2022/07/01 05:38:27;;;;;;;2.17;1.33;;;;;;;;;;5015796;28;20057;-75
2022/07/01 05:40:53;;;;;;;1.35;1.25;;;;;;;;;;5016394;28;20071;-76
2022/07/01 05:43:19;;;;;;;1.98;1.63;;;;;;;;;;5014370;28;20058;-77
2022/07/01 05:45:46;;;;;;;1.50;0.98;;;;;;;;;;5016047;28;20050;-76
2022/07/01 05:48:14;;;;;;;3.30;2.65;;;;;;;;;;5014881;28;20037;-76
2022/07/01 05:50:39;;;;;;;5.20;1.23;;;;;;;;;;5015716;28;20034;-76
2022/07/01 05:53:05;;;;;;;1.63;1.33;;;;;;;;;;5020480;28;20021;-76
2022/07/01 05:55:32;;;;;;;0.80;0.80;;;;;;;;;;5012974;28;20129;-76
2022/07/01 05:58:01;;;;;;;1.48;1.38;;;;;;;;;;5016108;28;20052;-76
2022/07/01 06:00:31;;;;;;;10.40;1.40;;;;;;;;;;5014199;28;20352;-76
2022/07/01 06:03:00;;;;;;;0.95;0.95;;;;;;;;;;5015563;28;20325;-76
2022/07/01 06:05:25;;;;;;;0.52;0.52;;;;;;;;;;5014673;28;20025;-76
2022/07/01 06:07:50;;;;;;;0.85;0.77;;;;;;;;;;5024458;28;20026;-76
2022/07/01 06:10:16;;;;;;;1.48;1.05;;;;;;;;;;5016905;28;20022;-76
2022/07/01 06:12:41;;;;;;;2.20;2.00;;;;;;;;;;5014072;28;20034;-75
2022/07/01 06:15:08;;;;;;;2.30;1.50;;;;;;;;;;5009412;28;20336;-76
2022/07/01 06:17:35;;;;;;;1.35;1.25;;;;;;;;;;5003659;28;20034;-76
2022/07/01 06:20:00;;;;;;;1.05;0.93;;;;;;;;;;5022567;28;20029;-76
2022/07/01 06:22:28;;;;;;;2.00;1.77;;;;;;;;;;5017958;28;20079;-76
2022/07/01 06:24:54;;;;;;;0.75;0.73;;;;;;;;;;5014276;28;20026;-77
2022/07/01 06:27:19;;;;;;;1.98;1.08;;;;;;;;;;5012266;28;20482;-77
2022/07/01 06:29:47;;;;;;;1.23;0.80;;;;;;;;;;5014764;28;20029;-77
2022/07/01 06:32:12;;;;;;;2.13;1.42;;;;;;;;;;5017074;28;20104;-76
2022/07/01 06:34:38;;;;;;;1.83;1.50;;;;;;;;;;5015023;28;20101;-76
2022/07/01 06:37:03;;;;;;;1.48;1.38;;;;;;;;;;5014951;28;20068;-76
2022/07/01 06:39:29;;;;;;;2.03;1.35;;;;;;;;;;5014107;28;20030;-76
2022/07/01 06:41:55;;;;;;;1.27;1.17;;;;;;;;;;5013992;28;20056;-78
2022/07/01 06:44:23;;;;;;;2.35;1.88;;;;;;;;;;5013508;28;20025;-77
2022/07/01 06:46:53;;;;;;;1.65;1.55;;;;;;;;;;5011419;28;20087;-76
2022/07/01 06:49:18;;;;;;;6.70;1.83;;;;;;;;;;5010672;28;20022;-77
2022/07/01 06:51:44;;;;;;;2.67;1.73;;;;;;;;;;5015443;28;20458;-76
2022/07/01 06:54:09;;;;;;;2.40;2.10;;;;;;;;;;4995282;28;20451;-78
2022/07/01 06:56:35;;;;;;;2.88;2.42;;;;;;;;;;5013374;28;20140;-78
2022/07/01 06:59:01;;;;;;;3.47;2.08;;;;;;;;;;5013504;28;20112;-77
2022/07/01 07:01:27;;;;;;;2.95;1.65;;;;;;;;;;5015497;28;20026;-77
2022/07/01 07:03:52;;;;;;;1.67;1.48;;;;;;;;;;5012960;28;20025;-77
2022/07/01 07:06:18;;;;;;;3.55;2.38;;;;;;;;;;5000165;28;20354;-78
2022/07/01 07:08:43;;;;;;;4.20;2.80;;;;;;;;;;5013115;28;20052;-77
2022/07/01 07:11:08;;;;;;;2.83;2.35;;;;;;;;;;5014159;28;20057;-77
2022/07/01 07:13:34;;;;;;;2.90;1.30;;;;;;;;;;5020642;28;20033;-78
2022/07/01 07:16:00;;;;;;;3.72;2.72;;;;;;;;;;5011401;28;20146;-76
2022/07/01 07:18:25;;;;;;;3.70;1.83;;;;;;;;;;5014640;28;20112;-77
2022/07/01 07:20:51;;;;;;;3.30;1.60;;;;;;;;;;5013294;28;20041;-77
2022/07/01 07:23:16;;;;;;;17.55;1.98;;;;;;;;;;5012020;28;20045;-79
2022/07/01 07:25:44;;;;;;;1.17;0.90;;;;;;;;;;5003200;28;20038;-77
2022/07/01 07:28:09;;;;;;;4.32;1.40;;;;;;;;;;5011511;28;20029;-78
2022/07/01 07:30:34;;;;;;;1.70;1.48;;;;;;;;;;5012229;28;20109;-78
2022/07/01 07:33:02;;;;;;;1.33;1.23;;;;;;;;;;5014012;28;20036;-78
2022/07/01 07:35:29;;;;;;;0.65;0.63;;;;;;;;;;5007594;28;20079;-78
2022/07/01 07:37:55;;;;;;;1.23;1.13;;;;;;;;;;5012706;28;20025;-78
2022/07/01 07:40:20;;;;;;;2.03;1.42;;;;;;;;;;5013968;28;20117;-78
2022/07/01 07:42:49;;;;;;;1.52;0.98;;;;;;;;;;5014507;28;20064;-78
2022/07/01 07:45:16;;;;;;;0.75;0.75;;;;;;;;;;5013248;28;20044;-79
2022/07/01 07:47:43;;;;;;;3.63;1.30;;;;;;;;;;4998419;28;20336;-78
2022/07/01 07:50:09;;;;;;;1.15;0.70;;;;;;;;;;5006785;28;20030;-79
2022/07/01 07:52:35;;;;;;;1.27;1.13;;;;;;;;;;4987011;28;20113;-79
2022/07/01 07:55:00;;;;;;;0.98;0.90;;;;;;;;;;5013310;28;20034;-79
2022/07/01 07:57:26;;;;;;;0.82;0.82;;;;;;;;;;5018438;28;20041;-78
2022/07/01 07:59:53;;;;;;;9.90;1.95;;;;;;;;;;5013230;28;20030;-79
2022/07/01 08:02:19;;;;;;;1.65;1.08;;;;;;;;;;5016686;28;20061;-80
2022/07/01 08:04:44;;;;;;;3.45;1.80;;;;;;;;;;5002984;28;20056;-79
2022/07/01 08:07:09;;;;;;;0.73;0.73;;;;;;;;;;5009337;28;20060;-79
2022/07/01 08:09:35;;;;;;;2.05;1.52;;;;;;;;;;5012047;28;20087;-79
2022/07/01 08:12:01;;;;;;;2.22;1.15;;;;;;;;;;5013459;28;20065;-80
2022/07/01 08:14:27;;;;;;;2.30;1.70;;;;;;;;;;5036113;28;20072;-79
2022/07/01 08:16:52;;;;;;;3.15;1.80;;;;;;;;;;5014209;28;20437;-79
2022/07/01 08:19:20;;;;;;;1.73;0.90;;;;;;;;;;5015306;28;20098;-80
2022/07/01 08:21:45;;;;;;;3.13;1.70;;;;;;;;;;5013415;28;20026;-78
2022/07/01 08:24:16;;;;;;;2.13;1.10;;;;;;;;;;5012272;28;20099;-78
2022/07/01 08:26:42;;;;;;;2.33;1.58;;;;;;;;;;4997313;28;20320;-78
2022/07/01 08:29:07;;;;;;;2.80;2.40;;;;;;;;;;5013085;28;20076;-78
2022/07/01 08:31:32;;;;;;;1.42;1.13;;;;;;;;;;4995640;28;20040;-78
2022/07/01 08:34:02;;;;;;;4.63;3.15;;;;;;;;;;5011013;28;20026;-79
2022/07/01 08:36:29;;;;;;;3.05;1.42;;;;;;;;;;5008049;28;20117;-79
2022/07/01 08:38:55;;;;;;;2.25;2.08;;;;;;;;;;5026099;28;20034;-77
2022/07/01 08:41:20;;;;;;;3.88;1.85;;;;;;;;;;5012025;28;20040;-77
2022/07/01 08:43:46;;;;;;;2.92;1.63;;;;;;;;;;5015234;28;20062;-77
2022/07/01 08:46:12;;;;;;;1.30;1.13;;;;;;;;;;5021002;28;20376;-77
2022/07/01 08:48:42;;;;;;;1.27;1.17;;;;;;;;;;4994217;28;20113;-78
2022/07/01 08:51:07;;;;;;;3.42;1.73;;;;;;;;;;5011856;28;20034;-78
2022/07/01 08:53:32;;;;;;;1.92;0.93;;;;;;;;;;5024256;28;20114;-78
2022/07/01 08:58:48;;;;;;;0.68;0.68;;;;;;;;;;5016235;28;20481;-78
2022/07/01 09:01:15;;;;;;;1.27;0.88;;;;;;;;;;5016098;28;20036;-78
2022/07/01 09:03:41;;;;;;;3.92;1.45;;;;;;;;;;5015391;28;20451;-79
2022/07/01 09:06:20;;;;;;;0.80;0.70;;;;;;;;;;5015581;28;20359;-78
2022/07/01 09:08:46;;;;;;;3.00;1.42;;;;;;;;;;5020333;28;20091;-76
2022/07/01 09:11:18;;;;;;;0.85;0.85;;;;;;;;;;5016374;28;20410;-77
2022/07/01 09:14:06;;;;;;;0.68;0.65;;;;;;;;;;5014165;28;20046;-76
2022/07/01 09:16:39;;;;;;;0.73;0.73;;;;;;;;;;5012867;28;20029;-77
2022/07/01 09:19:05;;;;;;;1.10;1.00;;;;;;;;;;5012758;28;20030;-78
2022/07/01 09:21:31;;;;;;;0.47;0.45;;;;;;;;;;5010885;28;20471;-77
2022/07/01 09:24:04;;;;;;;3.13;0.68;;;;;;;;;;5012038;28;20064;-75
2022/07/01 09:26:30;;;;;;;0.90;0.90;;;;;;;;;;5014056;28;20076;-77
2022/07/01 09:28:57;;;;;;;0.70;0.70;;;;;;;;;;5016538;28;20033;-76
2022/07/01 09:31:30;;;;;;;1.45;1.23;;;;;;;;;;5014798;28;20100;-77
2022/07/01 09:34:08;;;;;;;1.83;0.90;;;;;;;;;;4997802;28;20032;-78
2022/07/01 09:36:39;;;;;;;0.65;0.63;;;;;;;;;;5016346;28;20495;-76
2022/07/01 09:39:04;;;;;;;0.65;0.65;;;;;;;;;;4997473;28;20395;-76
2022/07/01 09:41:35;;;;;;;0.38;0.38;;;;;;;;;;5013822;28;20037;-77
2022/07/01 09:44:07;;;;;;;4.57;0.63;;;;;;;;;;5016501;28;20030;-76
2022/07/01 09:46:33;;;;;;;0.60;0.60;;;;;;;;;;5017693;28;20018;-77
2022/07/01 10:00:38;;;;;;;;;;;;;;;;;;;;;
2022/07/01 10:13:49;;;;;;;0.55;0.55;;;;;;;;;;4831615;29;20422;-78
2022/07/01 10:16:38;;;;;;;0.43;0.43;;;;;;;;;;4810198;29;20078;-76
2022/07/01 10:29:51;;;;;;;0.28;0.28;;;;;;;;;;4858958;29;20105;-78
2022/07/01 10:44:14;;;;;;;0.40;0.40;;;;;;;;;;5337773;23;20376;-75
2022/07/01 10:47:20;;;;;;;0.60;0.40;;;;;;;;;;4934577;29;20485;-75
2022/07/01 10:49:45;;;;;;;0.55;0.50;;;;;;;;;;4936147;29;20028;-75
2022/07/01 10:55:04;;;;;;;0.60;0.40;;;;;;;;;;4914445;29;20043;-75
2022/07/01 10:57:37;;;;;;;7.55;2.28;;;;;;;;;;4915457;29;20079;-76
2022/07/01 11:00:05;;;;;;;4.68;1.15;;;;;;;;;;4928645;29;20039;-76
2022/07/01 11:02:45;;;;;;;0.13;0.13;;;;;;;;;;4931190;29;20077;-76
2022/07/01 11:05:22;;;;;;;0.22;0.22;;;;;;;;;;4931722;29;20139;-76
2022/07/01 11:07:52;;;;;;;0.20;0.20;;;;;;;;;;4932679;29;20023;-76
2022/07/01 11:10:18;;;;;;;0.90;0.55;;;;;;;;;;4935219;29;20027;-76
2022/07/01 11:12:44;;;;;;;2.28;0.70;;;;;;;;;;4935831;29;20098;-75
2022/07/01 12:21:57;;;;;;;0.35;0.22;;;;;;;;;;5339729;23;20051;-74
2022/07/01 12:24:23;;;;;;;0.17;0.17;;;;;;;;;;4973843;28;20053;-76
2022/07/01 12:26:50;;;;;;;0.20;0.20;;;;;;;;;;4972394;28;20520;-75
2022/07/01 12:29:17;;;;;;;0.28;0.28;;;;;;;;;;4971527;28;20031;-75
2022/07/01 12:31:43;;;;;;;0.10;0.10;;;;;;;;;;4972665;28;20464;-74
2022/07/01 12:34:11;;;;;;;0.10;0.10;;;;;;;;;;4955830;28;20034;-75
2022/07/01 12:36:36;;;;;;;0.10;0.10;;;;;;;;;;4975335;28;20023;-74
2022/07/01 12:39:08;;;;;;;0.15;0.15;;;;;;;;;;4953986;28;20519;-74
2022/07/01 12:41:34;;;;;;;;;;;;;;;;;;4970415;28;20038;-74
2022/07/01 12:44:01;;;;;;;0.25;0.17;;;;;;;;;;4972250;28;19921;-75
2022/07/01 12:46:28;;;;;;;6.75;0.63;;;;;;;;;;4947870;28;20043;-75
2022/07/01 12:48:53;;;;;;;0.17;0.17;;;;;;;;;;4967626;28;20058;-75
2022/07/01 12:51:19;;;;;;;1.65;0.55;;;;;;;;;;4975373;28;20479;-75
2022/07/01 12:53:50;;;;;;;0.50;0.35;;;;;;;;;;4974770;28;20030;-77
2022/07/01 12:56:24;;;;;;;0.38;0.28;;;;;;;;;;4974456;28;20046;-75
2022/07/01 12:58:49;;;;;;;0.17;0.13;;;;;;;;;;4973617;28;20031;-74
2022/07/01 13:01:15;;;;;;;0.00;0.00;;;;;;;;;;4973780;28;20114;-76
2022/07/01 13:03:40;;;;;;;0.10;0.10;;;;;;;;;;4973397;28;20030;-77
2022/07/01 13:06:05;;;;;;;0.25;0.25;;;;;;;;;;4973449;28;20532;-76
2022/07/01 13:08:33;;;;;;;0.10;0.10;;;;;;;;;;4977096;28;20474;-76
2022/07/01 13:11:01;;;;;;;0.90;0.55;;;;;;;;;;4972623;28;20030;-80
2022/07/01 13:13:26;;;;;;;0.10;0.10;;;;;;;;;;4975527;28;20023;-76
2022/07/01 13:15:52;;;;;;;0.10;0.10;;;;;;;;;;4976506;28;20097;-77
2022/07/01 13:18:19;;;;;;;0.35;0.20;;;;;;;;;;4974163;28;20027;-77
2022/07/01 13:20:46;;;;;;;1.75;0.20;;;;;;;;;;4972886;28;20066;-77
2022/07/01 13:23:14;;;;;;;0.17;0.17;;;;;;;;;;4974302;28;20393;-77
2022/07/01 13:25:41;;;;;;;0.10;0.10;;;;;;;;;;4975525;28;20030;-77
2022/07/01 13:28:48;;;;;;;0.08;0.08;;;;;;;;;;4973727;28;20078;-77
2022/07/01 13:31:14;;;;;;;0.10;0.10;;;;;;;;;;4920348;29;20086;-77
2022/07/01 13:37:18;;;;;;;0.08;0.08;;;;;;;;;;4931710;29;20042;-78
2022/07/01 13:39:44;;;;;;;0.20;0.20;;;;;;;;;;4935361;29;20370;-78
2022/07/01 13:42:15;;;;;;;0.98;0.45;;;;;;;;;;4919791;29;20040;-78
2022/07/01 13:44:41;;;;;;;0.75;0.50;;;;;;;;;;4918734;29;20039;-79
2022/07/01 13:47:53;;;;;;;0.28;0.20;;;;;;;;;;4918107;29;20046;-78
2022/07/01 13:50:52;;;;;;;0.25;0.10;;;;;;;;;;4918544;29;20027;-78
2022/07/01 13:53:18;;;;;;;0.10;0.10;;;;;;;;;;4934822;29;20099;-78
2022/07/01 13:55:44;;;;;;;5.75;0.10;;;;;;;;;;4934534;29;20039;-78
2022/07/01 13:58:09;;;;;;;0.43;0.43;;;;;;;;;;4934906;29;20035;-78
2022/07/01 14:00:37;;;;;;;0.20;0.20;;;;;;;;;;4933599;29;20146;-78
2022/07/01 14:03:03;;;;;;;0.10;0.10;;;;;;;;;;4918722;29;20058;-77
2022/07/01 14:05:31;;;;;;;0.10;0.10;;;;;;;;;;4954485;28;20061;-78
2022/07/01 14:07:58;;;;;;;0.00;0.00;;;;;;;;;;4977782;28;20110;-77
2022/07/01 14:10:24;;;;;;;0.45;0.40;;;;;;;;;;4972608;28;20023;-78
2022/07/01 14:12:51;;;;;;;0.30;0.13;;;;;;;;;;4973567;28;20027;-78
2022/07/01 14:15:17;;;;;;;1.17;0.30;;;;;;;;;;4974636;28;20074;-78
2022/07/01 14:17:47;;;;;;;0.00;0.00;;;;;;;;;;4961557;28;20058;-78
2022/07/01 14:20:15;;;;;;;8.25;0.88;;;;;;;;;;4972150;28;20534;-78
2022/07/01 14:22:40;;;;;;;0.10;0.10;;;;;;;;;;4975774;28;20559;-78
2022/07/01 14:25:06;;;;;;;0.20;0.10;;;;;;;;;;4968300;28;20097;-78
2022/07/01 14:27:34;;;;;;;0.10;0.10;;;;;;;;;;4975377;28;20019;-79
2022/07/01 14:30:00;;;;;;;0.17;0.17;;;;;;;;;;4978533;28;20246;-77
2022/07/01 14:32:29;;;;;;;1.90;0.63;;;;;;;;;;4976173;28;20023;-77
2022/07/01 14:34:54;;;;;;;0.15;0.15;;;;;;;;;;4972855;28;20015;-77
2022/07/01 14:37:22;;;;;;;0.00;0.00;;;;;;;;;;4975758;28;20030;-77
2022/07/01 14:39:51;;;;;;;0.08;0.08;;;;;;;;;;4974321;28;20094;-77
2022/07/01 14:42:18;;;;;;;11.18;0.57;;;;;;;;;;4973773;28;20033;-77
2022/07/01 14:44:44;;;;;;;5.28;0.30;;;;;;;;;;4970250;28;20019;-75
2022/07/01 14:47:09;;;;;;;2.92;0.60;;;;;;;;;;4974185;28;20018;-77
2022/07/01 14:49:35;;;;;;;0.25;0.25;;;;;;;;;;4975025;28;20062;-78
2022/07/01 14:52:02;;;;;;;0.85;0.45;;;;;;;;;;4975231;28;20023;-78
2022/07/01 14:54:31;;;;;;;1.25;0.47;;;;;;;;;;4972718;28;20421;-77
2022/07/01 14:56:56;;;;;;;0.60;0.55;;;;;;;;;;4968341;28;20054;-77
2022/07/01 14:59:21;;;;;;;1.02;0.65;;;;;;;;;;4967622;28;20030;-78
2022/07/01 15:01:47;;;;;;;0.20;0.17;;;;;;;;;;4973347;28;20038;-77
2022/07/01 15:04:12;;;;;;;0.00;0.00;;;;;;;;;;4971556;28;20684;-77
2022/07/01 15:06:42;;;;;;;1.48;0.70;;;;;;;;;;4966767;28;20085;-77
2022/07/01 15:09:08;;;;;;;0.10;0.10;;;;;;;;;;4972724;28;20477;-77
2022/07/01 15:11:35;;;;;;;1.45;0.22;;;;;;;;;;4975671;28;20054;-78
2022/07/01 15:14:01;;;;;;;0.15;0.08;;;;;;;;;;4975477;28;20029;-76
2022/07/01 15:16:26;;;;;;;1.95;0.93;;;;;;;;;;4973356;28;20027;-77
2022/07/01 15:18:54;;;;;;;3.17;1.00;;;;;;;;;;4974098;28;20364;-76
2022/07/01 15:21:19;;;;;;;6.00;1.63;;;;;;;;;;4975477;28;20030;-77
2022/07/01 15:23:47;;;;;;;3.50;0.95;;;;;;;;;;4973454;28;20050;-76
2022/07/01 15:26:13;;;;;;;0.20;0.20;;;;;;;;;;4977019;28;20388;-77
2022/07/01 15:28:40;;;;;;;0.00;0.00;;;;;;;;;;4973629;28;20022;-76
2022/07/01 15:31:07;;;;;;;2.45;0.65;;;;;;;;;;4973427;28;20062;-77
2022/07/01 15:33:33;;;;;;;0.50;0.40;;;;;;;;;;4970629;28;20101;-77
2022/07/01 15:35:58;;;;;;;0.20;0.20;;;;;;;;;;4973912;28;20437;-76
2022/07/01 15:38:28;;;;;;;0.75;0.35;;;;;;;;;;4971540;28;20034;-77
2022/07/01 15:40:54;;;;;;;0.90;0.45;;;;;;;;;;4972916;28;20045;-76
2022/07/01 15:43:20;;;;;;;0.03;0.03;;;;;;;;;;4972130;28;20674;-77
2022/07/01 15:45:45;;;;;;;0.35;0.28;;;;;;;;;;4970409;28;20035;-78
2022/07/01 15:48:13;;;;;;;0.10;0.10;;;;;;;;;;4971932;28;20070;-77
2022/07/01 15:50:41;;;;;;;0.03;0.03;;;;;;;;;;4971522;28;20047;-77
2022/07/01 15:53:08;;;;;;;0.00;0.00;;;;;;;;;;4971817;28;20018;-78
2022/07/01 15:55:34;;;;;;;0.30;0.30;;;;;;;;;;4971391;28;20030;-75
2022/07/01 15:58:00;;;;;;;0.00;0.00;;;;;;;;;;4968962;28;20047;-76
2022/07/01 16:00:26;;;;;;;0.35;0.35;;;;;;;;;;4962868;28;20114;-75
2022/07/01 16:02:52;;;;;;;0.10;0.10;;;;;;;;;;4967879;28;20030;-75
2022/07/01 16:05:17;;;;;;;0.68;0.55;;;;;;;;;;4973290;28;20354;-75
2022/07/01 16:07:44;;;;;;;0.20;0.20;;;;;;;;;;4971416;28;20081;-76
2022/07/01 16:10:11;;;;;;;0.10;0.10;;;;;;;;;;4948856;28;20066;-77
2022/07/01 16:13:18;;;;;;;0.30;0.30;;;;;;;;;;4972508;28;20023;-77
2022/07/01 16:15:54;;;;;;;0.32;0.15;;;;;;;;;;4963842;28;20038;-77
2022/07/01 16:18:27;;;;;;;2.28;0.77;;;;;;;;;;4972548;28;20081;-76
2022/07/01 16:20:56;;;;;;;0.13;0.13;;;;;;;;;;4971935;28;20034;-77
2022/07/01 16:23:27;;;;;;;2.15;0.32;;;;;;;;;;4971285;28;20087;-78
2022/07/01 16:25:56;;;;;;;0.55;0.40;;;;;;;;;;4970866;28;20031;-78
2022/07/01 16:28:25;;;;;;;0.00;0.00;;;;;;;;;;4969908;28;20572;-77
2022/07/01 16:31:01;;;;;;;0.17;0.17;;;;;;;;;;4973120;28;20046;-78
2022/07/01 16:33:47;;;;;;;0.43;0.43;;;;;;;;;;4973731;28;20031;-78
2022/07/01 16:36:36;;;;;;;0.10;0.10;;;;;;;;;;4974930;28;20041;-77
2022/07/01 16:39:29;;;;;;;0.00;0.00;;;;;;;;;;4974336;28;20412;-78
2022/07/01 16:41:56;;;;;;;0.13;0.13;;;;;;;;;;4969081;28;20539;-75
2022/07/01 16:44:44;;;;;;;0.22;0.10;;;;;;;;;;4971874;28;20480;-77
2022/07/01 16:47:13;;;;;;;0.10;0.10;;;;;;;;;;4974818;28;20122;-77
2022/07/01 16:49:44;;;;;;;0.75;0.50;;;;;;;;;;4957444;28;20031;-77
2022/07/01 16:52:15;;;;;;;0.22;0.10;;;;;;;;;;4973709;28;20035;-76
2022/07/01 16:54:46;;;;;;;0.13;0.13;;;;;;;;;;4973029;28;20031;-78
2022/07/01 16:57:16;;;;;;;0.20;0.20;;;;;;;;;;4958377;28;20360;-78
2022/07/01 16:59:42;;;;;;;1.08;0.43;;;;;;;;;;4974870;28;20030;-78
2022/07/01 17:02:09;;;;;;;0.68;0.65;;;;;;;;;;4973838;28;20042;-77